createdAt,value
2022-12-09T06:15:48.674Z,17.41
2022-12-09T06:16:55.169Z,16.99
2022-12-09T06:17:59.778Z,16.35
2022-12-09T06:19:06.774Z,16.84
2022-12-09T06:20:11.061Z,18.67
2022-12-09T06:21:16.388Z,19.56
2022-12-09T06:22:20.819Z,17.74
2022-12-09T06:23:25.418Z,17.75
2022-12-09T06:24:30.940Z,16.62
2022-12-09T06:25:34.385Z,14.70
2022-12-09T06:26:38.206Z,13.52
2022-12-09T06:27:42.312Z,24.16
2022-12-09T06:28:45.662Z,15.27
2022-12-09T06:29:48.994Z,17.22
2022-12-09T06:30:51.807Z,16.72
2022-12-09T06:31:55.599Z,17.11
2022-12-09T06:32:59.291Z,20.48
2022-12-09T06:34:03.725Z,17.11
2022-12-09T06:35:10.428Z,23.46
2022-12-09T06:36:15.008Z,17.52
2022-12-09T06:37:18.793Z,14.62
2022-12-09T06:38:24.352Z,26.80
2022-12-09T06:39:29.800Z,18.69
2022-12-09T06:40:33.536Z,24.24
2022-12-09T06:41:38.846Z,19.13
2022-12-09T06:42:41.344Z,30.43
2022-12-09T06:43:44.686Z,27.70
2022-12-09T06:44:48.411Z,23.76
2022-12-09T06:45:52.470Z,19.62
2022-12-09T06:46:56.267Z,24.32
2022-12-09T06:48:01.107Z,19.70
2022-12-09T06:49:05.101Z,26.18
2022-12-09T06:50:14.026Z,20.10
2022-12-09T06:51:19.707Z,25.57
2022-12-09T06:52:23.540Z,18.79
2022-12-09T06:53:26.531Z,15.89
2022-12-09T06:54:32.843Z,16.06
2022-12-09T06:55:37.360Z,16.23
2022-12-09T06:56:41.346Z,18.02
2022-12-09T06:57:48.049Z,14.79
2022-12-09T06:58:52.063Z,13.57
2022-12-09T06:59:55.786Z,12.14
2022-12-09T07:01:16.620Z,13.32
2022-12-09T07:02:20.727Z,16.98
2022-12-09T07:03:23.887Z,15.62
2022-12-09T07:04:29.635Z,16.70
2022-12-09T07:05:33.600Z,16.75
2022-12-09T07:06:57.421Z,14.39
2022-12-09T07:08:02.039Z,13.89
2022-12-09T07:09:15.660Z,16.06
2022-12-09T07:10:20.833Z,14.06
2022-12-09T07:11:24.798Z,18.34
2022-12-09T07:12:28.528Z,14.36
2022-12-09T12:52:57.195Z,16.31
2022-12-09T12:54:10.805Z,15.88
2022-12-09T13:07:34.083Z,15.66
2022-12-09T13:10:24.653Z,18.45
2022-12-09T13:11:44.768Z,19.37
2022-12-09T13:12:55.628Z,20.42
2022-12-09T13:14:05.444Z,21.57
2022-12-09T13:15:17.981Z,20.38
2022-12-09T13:17:46.421Z,22.37
2022-12-09T13:18:50.556Z,23.32
2022-12-09T13:20:00.579Z,21.72
2022-12-09T13:21:06.368Z,24.38
2022-12-09T13:23:54.081Z,25.12
2022-12-09T13:25:28.885Z,22.80
2022-12-09T13:26:50.060Z,24.76
2022-12-09T13:27:59.397Z,22.41
2022-12-09T13:29:32.289Z,24.61
2022-12-09T13:30:58.570Z,23.56
2022-12-09T13:32:04.803Z,22.71
2022-12-09T13:33:23.061Z,26.38
2022-12-09T13:34:40.949Z,25.02
2022-12-09T13:36:09.814Z,27.57
2022-12-09T13:37:36.617Z,26.83
2022-12-09T13:38:43.515Z,24.34
2022-12-09T13:39:58.553Z,28.39
2022-12-09T13:41:21.553Z,28.04
2022-12-09T13:42:53.307Z,26.37
2022-12-09T13:44:09.816Z,27.56
2022-12-09T13:45:26.164Z,27.61
2022-12-09T13:46:29.972Z,27.73
2022-12-09T13:47:37.248Z,28.44
2022-12-09T13:48:48.240Z,25.81
2022-12-09T13:51:12.724Z,24.53
2022-12-09T13:52:20.200Z,27.13
2022-12-09T13:53:40.000Z,27.97
2022-12-09T13:54:46.358Z,28.56
2022-12-09T13:55:56.968Z,26.04
2022-12-09T13:58:30.465Z,25.78
2022-12-09T13:59:46.439Z,24.59
2022-12-09T14:01:04.728Z,22.52
